sensor_id;sensor_type;location;lat;lon;timestamp;temperature;humidity
24176;DHT22;12324;48.146;11.502;2024-01-30T00:00:19;0.20;99.90
24176;DHT22;12324;48.146;11.502;2024-01-30T00:02:46;0.10;99.90
24176;DHT22;12324;48.146;11.502;2024-01-30T00:05:15;0.00;99.90
24176;DHT22;12324;48.146;11.502;2024-01-30T00:07:42;-0.10;99.90
24176;DHT22;12324;48.146;11.502;2024-01-30T00:10:09;-0.10;99.90
24176;DHT22;12324;48.146;11.502;2024-01-30T00:12:36;-0.10;99.90
24176;DHT22;12324;48.146;11.502;2024-01-30T00:15:03;-0.10;99.90
24176;DHT22;12324;48.146;11.502;2024-01-30T00:17:31;-0.20;99.90
24176;DHT22;12324;48.146;11.502;2024-01-30T00:19:58;-0.20;99.90
24176;DHT22;12324;48.146;11.502;2024-01-30T00:22:25;-0.20;99.90
24176;DHT22;12324;48.146;11.502;2024-01-30T00:24:52;-0.30;99.90
24176;DHT22;12324;48.146;11.502;2024-01-30T00:27:18;-0.20;99.90
24176;DHT22;12324;48.146;11.502;2024-01-30T00:29:45;-0.30;99.90
24176;DHT22;12324;48.146;11.502;2024-01-30T00:32:12;-0.30;99.90
24176;DHT22;12324;48.146;11.502;2024-01-30T00:34:39;0.40;99.90
24176;DHT22;12324;48.146;11.502;2024-01-30T00:37:06;-0.40;99.90
24176;DHT22;12324;48.146;11.502;2024-01-30T00:39:32;-0.40;99.90
24176;DHT22;12324;48.146;11.502;2024-01-30T00:41:59;-0.50;99.90
24176;DHT22;12324;48.146;11.502;2024-01-30T00:44:26;-0.50;99.90
24176;DHT22;12324;48.146;11.502;2024-01-30T00:46:53;-0.40;99.90
24176;DHT22;12324;48.146;11.502;2024-01-30T00:49:20;-0.40;99.90
24176;DHT22;12324;48.146;11.502;2024-01-30T00:51:46;-0.40;99.90
24176;DHT22;12324;48.146;11.502;2024-01-30T00:54:13;-0.50;99.90
24176;DHT22;12324;48.146;11.502;2024-01-30T00:56:40;-0.40;99.90
24176;DHT22;12324;48.146;11.502;2024-01-30T00:59:07;-0.40;99.90
24176;DHT22;12324;48.146;11.502;2024-01-30T01:01:33;-0.50;99.90
24176;DHT22;12324;48.146;11.502;2024-01-30T01:04:00;-0.40;99.90
24176;DHT22;12324;48.146;11.502;2024-01-30T01:06:27;-0.40;99.90
24176;DHT22;12324;48.146;11.502;2024-01-30T01:08:54;-0.40;99.90
24176;DHT22;12324;48.146;11.502;2024-01-30T01:11:21;-0.40;99.90
24176;DHT22;12324;48.146;11.502;2024-01-30T01:13:48;-0.50;99.90
24176;DHT22;12324;48.146;11.502;2024-01-30T01:16:15;-0.40;99.90
24176;DHT22;12324;48.146;11.502;2024-01-30T01:18:42;-0.50;99.90
24176;DHT22;12324;48.146;11.502;2024-01-30T01:21:09;-0.50;99.90
24176;DHT22;12324;48.146;11.502;2024-01-30T01:23:35;-0.50;99.90
24176;DHT22;12324;48.146;11.502;2024-01-30T01:26:02;-0.50;99.90
24176;DHT22;12324;48.146;11.502;2024-01-30T01:28:29;-0.40;99.90
24176;DHT22;12324;48.146;11.502;2024-01-30T01:30:56;-0.40;99.90
24176;DHT22;12324;48.146;11.502;2024-01-30T01:33:26;-0.50;99.90
24176;DHT22;12324;48.146;11.502;2024-01-30T01:35:53;-0.40;99.90
24176;DHT22;12324;48.146;11.502;2024-01-30T01:38:20;-0.50;99.90
24176;DHT22;12324;48.146;11.502;2024-01-30T01:40:46;-0.40;99.90
24176;DHT22;12324;48.146;11.502;2024-01-30T01:43:13;-0.40;99.90
24176;DHT22;12324;48.146;11.502;2024-01-30T01:45:40;-0.30;99.90
24176;DHT22;12324;48.146;11.502;2024-01-30T01:48:07;-0.40;99.90
24176;DHT22;12324;48.146;11.502;2024-01-30T01:50:36;-0.30;99.90
24176;DHT22;12324;48.146;11.502;2024-01-30T01:53:03;-0.20;99.90
24176;DHT22;12324;48.146;11.502;2024-01-30T01:55:31;-0.10;99.90
24176;DHT22;12324;48.146;11.502;2024-01-30T01:57:58;0.00;99.90
24176;DHT22;12324;48.146;11.502;2024-01-30T02:00:25;-0.20;99.90
24176;DHT22;12324;48.146;11.502;2024-01-30T02:02:54;-0.20;99.90
24176;DHT22;12324;48.146;11.502;2024-01-30T02:05:21;-0.30;99.90
24176;DHT22;12324;48.146;11.502;2024-01-30T02:07:48;-0.40;99.90
24176;DHT22;12324;48.146;11.502;2024-01-30T02:10:17;-0.50;99.90
24176;DHT22;12324;48.146;11.502;2024-01-30T02:12:44;-0.40;99.90
24176;DHT22;12324;48.146;11.502;2024-01-30T02:15:13;-0.40;99.90
24176;DHT22;12324;48.146;11.502;2024-01-30T02:17:40;-0.50;99.90
24176;DHT22;12324;48.146;11.502;2024-01-30T02:20:07;-0.60;99.90
24176;DHT22;12324;48.146;11.502;2024-01-30T02:22:36;-0.70;99.90
24176;DHT22;12324;48.146;11.502;2024-01-30T02:25:04;-0.40;99.90
24176;DHT22;12324;48.146;11.502;2024-01-30T02:27:31;-0.60;99.90
24176;DHT22;12324;48.146;11.502;2024-01-30T02:29:57;-0.60;99.90
24176;DHT22;12324;48.146;11.502;2024-01-30T02:32:24;-0.60;99.90
24176;DHT22;12324;48.146;11.502;2024-01-30T02:34:51;-0.70;99.90
24176;DHT22;12324;48.146;11.502;2024-01-30T02:37:18;-0.60;99.90
24176;DHT22;12324;48.146;11.502;2024-01-30T02:39:45;-0.40;99.90
24176;DHT22;12324;48.146;11.502;2024-01-30T02:42:11;-0.50;99.90
24176;DHT22;12324;48.146;11.502;2024-01-30T02:44:38;-0.40;99.90
24176;DHT22;12324;48.146;11.502;2024-01-30T02:47:05;-0.50;99.90
24176;DHT22;12324;48.146;11.502;2024-01-30T02:49:32;-0.50;99.90
24176;DHT22;12324;48.146;11.502;2024-01-30T02:51:59;-0.40;99.90
24176;DHT22;12324;48.146;11.502;2024-01-30T02:54:25;-0.40;99.90
24176;DHT22;12324;48.146;11.502;2024-01-30T02:56:52;-0.60;99.90
24176;DHT22;12324;48.146;11.502;2024-01-30T02:59:19;-0.60;99.90
24176;DHT22;12324;48.146;11.502;2024-01-30T03:01:46;-0.60;99.90
24176;DHT22;12324;48.146;11.502;2024-01-30T03:04:13;-0.70;99.90
24176;DHT22;12324;48.146;11.502;2024-01-30T03:06:45;-0.80;99.90
24176;DHT22;12324;48.146;11.502;2024-01-30T03:09:13;-0.80;99.90
24176;DHT22;12324;48.146;11.502;2024-01-30T03:11:40;-0.70;99.90
24176;DHT22;12324;48.146;11.502;2024-01-30T03:14:07;-0.60;99.90
24176;DHT22;12324;48.146;11.502;2024-01-30T03:16:34;-0.70;99.90
24176;DHT22;12324;48.146;11.502;2024-01-30T03:19:01;-0.50;99.90
24176;DHT22;12324;48.146;11.502;2024-01-30T03:21:29;-0.50;99.90
24176;DHT22;12324;48.146;11.502;2024-01-30T03:23:56;-0.50;99.90
24176;DHT22;12324;48.146;11.502;2024-01-30T03:26:22;-0.40;99.90
24176;DHT22;12324;48.146;11.502;2024-01-30T03:28:49;-0.30;99.90
24176;DHT22;12324;48.146;11.502;2024-01-30T03:31:16;-0.40;99.90
24176;DHT22;12324;48.146;11.502;2024-01-30T03:33:43;-0.30;99.90
24176;DHT22;12324;48.146;11.502;2024-01-30T03:36:11;-0.40;99.90
24176;DHT22;12324;48.146;11.502;2024-01-30T03:38:38;-0.40;99.90
24176;DHT22;12324;48.146;11.502;2024-01-30T03:41:10;-0.50;99.90
24176;DHT22;12324;48.146;11.502;2024-01-30T03:43:37;-0.60;99.90
24176;DHT22;12324;48.146;11.502;2024-01-30T03:46:04;-0.70;99.90
24176;DHT22;12324;48.146;11.502;2024-01-30T03:48:31;-0.70;99.90
24176;DHT22;12324;48.146;11.502;2024-01-30T03:50:57;-0.70;99.90
24176;DHT22;12324;48.146;11.502;2024-01-30T03:53:24;-0.80;99.90
24176;DHT22;12324;48.146;11.502;2024-01-30T03:55:51;-0.70;99.90
24176;DHT22;12324;48.146;11.502;2024-01-30T03:58:18;-0.80;99.90
24176;DHT22;12324;48.146;11.502;2024-01-30T04:00:44;-0.80;99.90
24176;DHT22;12324;48.146;11.502;2024-01-30T04:03:12;-0.70;99.90
24176;DHT22;12324;48.146;11.502;2024-01-30T04:05:38;-0.70;99.90
24176;DHT22;12324;48.146;11.502;2024-01-30T04:08:05;-0.50;99.90
24176;DHT22;12324;48.146;11.502;2024-01-30T04:10:32;-0.40;99.90
24176;DHT22;12324;48.146;11.502;2024-01-30T04:12:59;-0.40;99.90
24176;DHT22;12324;48.146;11.502;2024-01-30T04:15:27;-0.40;99.90
24176;DHT22;12324;48.146;11.502;2024-01-30T04:17:58;-0.50;99.90
24176;DHT22;12324;48.146;11.502;2024-01-30T04:20:25;-0.70;99.90
24176;DHT22;12324;48.146;11.502;2024-01-30T04:22:52;-0.60;99.90
24176;DHT22;12324;48.146;11.502;2024-01-30T04:25:19;-0.70;99.90
24176;DHT22;12324;48.146;11.502;2024-01-30T04:27:46;-0.70;99.90
24176;DHT22;12324;48.146;11.502;2024-01-30T04:30:13;-0.70;99.90
24176;DHT22;12324;48.146;11.502;2024-01-30T04:32:40;-0.80;99.90
24176;DHT22;12324;48.146;11.502;2024-01-30T04:35:07;-0.80;99.90
24176;DHT22;12324;48.146;11.502;2024-01-30T04:37:37;-0.90;99.90
24176;DHT22;12324;48.146;11.502;2024-01-30T04:40:05;-0.90;99.90
24176;DHT22;12324;48.146;11.502;2024-01-30T04:42:32;-0.90;99.90
24176;DHT22;12324;48.146;11.502;2024-01-30T04:44:58;-0.80;99.90
24176;DHT22;12324;48.146;11.502;2024-01-30T04:47:25;-0.80;99.90
24176;DHT22;12324;48.146;11.502;2024-01-30T04:49:52;-0.80;99.90
24176;DHT22;12324;48.146;11.502;2024-01-30T04:52:19;-0.90;99.90
24176;DHT22;12324;48.146;11.502;2024-01-30T04:54:47;-0.90;99.90
24176;DHT22;12324;48.146;11.502;2024-01-30T04:57:14;-0.90;99.90
24176;DHT22;12324;48.146;11.502;2024-01-30T04:59:41;-1.00;99.90
24176;DHT22;12324;48.146;11.502;2024-01-30T05:02:07;-0.90;99.90
24176;DHT22;12324;48.146;11.502;2024-01-30T05:04:34;-1.10;99.90
24176;DHT22;12324;48.146;11.502;2024-01-30T05:07:01;-1.20;99.90
24176;DHT22;12324;48.146;11.502;2024-01-30T05:09:28;-1.00;99.90
24176;DHT22;12324;48.146;11.502;2024-01-30T05:11:55;-1.10;99.90
24176;DHT22;12324;48.146;11.502;2024-01-30T05:14:22;-1.10;99.90
24176;DHT22;12324;48.146;11.502;2024-01-30T05:16:49;-1.20;99.90
24176;DHT22;12324;48.146;11.502;2024-01-30T05:19:16;-1.30;99.90
24176;DHT22;12324;48.146;11.502;2024-01-30T05:21:44;-1.30;99.90
24176;DHT22;12324;48.146;11.502;2024-01-30T05:24:11;-1.20;99.90
24176;DHT22;12324;48.146;11.502;2024-01-30T05:26:38;-1.10;99.90
24176;DHT22;12324;48.146;11.502;2024-01-30T05:29:05;-1.10;99.90
24176;DHT22;12324;48.146;11.502;2024-01-30T05:31:33;-1.10;99.90
24176;DHT22;12324;48.146;11.502;2024-01-30T05:34:01;-1.20;99.90
24176;DHT22;12324;48.146;11.502;2024-01-30T05:36:28;-1.20;99.90
24176;DHT22;12324;48.146;11.502;2024-01-30T05:38:56;-1.20;99.90
24176;DHT22;12324;48.146;11.502;2024-01-30T05:41:23;-1.20;99.90
24176;DHT22;12324;48.146;11.502;2024-01-30T05:43:49;-1.20;99.90
24176;DHT22;12324;48.146;11.502;2024-01-30T05:46:16;-1.20;99.90
24176;DHT22;12324;48.146;11.502;2024-01-30T05:48:43;-1.20;99.90
24176;DHT22;12324;48.146;11.502;2024-01-30T05:51:10;-1.30;99.90
24176;DHT22;12324;48.146;11.502;2024-01-30T05:53:37;-1.30;99.90
24176;DHT22;12324;48.146;11.502;2024-01-30T05:56:04;-1.30;99.90
24176;DHT22;12324;48.146;11.502;2024-01-30T05:58:31;-1.10;99.90
24176;DHT22;12324;48.146;11.502;2024-01-30T06:00:58;-1.10;99.90
24176;DHT22;12324;48.146;11.502;2024-01-30T06:03:25;-0.80;99.90
24176;DHT22;12324;48.146;11.502;2024-01-30T06:05:52;-0.60;99.90
24176;DHT22;12324;48.146;11.502;2024-01-30T06:08:19;-0.50;99.90
24176;DHT22;12324;48.146;11.502;2024-01-30T06:10:46;-0.50;99.90
24176;DHT22;12324;48.146;11.502;2024-01-30T06:13:14;-0.30;99.90
24176;DHT22;12324;48.146;11.502;2024-01-30T06:15:41;-0.20;99.90
24176;DHT22;12324;48.146;11.502;2024-01-30T06:18:08;0.10;99.90
24176;DHT22;12324;48.146;11.502;2024-01-30T06:23:02;0.40;99.90
24176;DHT22;12324;48.146;11.502;2024-01-30T06:45:07;1.40;99.90
24176;DHT22;12324;48.146;11.502;2024-01-30T09:12:39;0.60;99.90
24176;DHT22;12324;48.146;11.502;2024-01-30T09:15:06;5.70;99.90
24176;DHT22;12324;48.146;11.502;2024-01-30T09:20:01;5.70;99.90
24176;DHT22;12324;48.146;11.502;2024-01-30T09:44:43;6.00;99.90
24176;DHT22;12324;48.146;11.502;2024-01-30T09:47:10;7.60;99.90
24176;DHT22;12324;48.146;11.502;2024-01-30T09:49:38;7.70;99.90
24176;DHT22;12324;48.146;11.502;2024-01-30T09:52:08;7.80;99.90
24176;DHT22;12324;48.146;11.502;2024-01-30T09:57:03;7.90;99.90
24176;DHT22;12324;48.146;11.502;2024-01-30T09:59:31;8.20;99.90
24176;DHT22;12324;48.146;11.502;2024-01-30T10:01:58;8.40;99.90
24176;DHT22;12324;48.146;11.502;2024-01-30T10:04:25;8.50;99.90
24176;DHT22;12324;48.146;11.502;2024-01-30T10:06:52;8.50;99.90
24176;DHT22;12324;48.146;11.502;2024-01-30T10:09:19;8.60;99.90
24176;DHT22;12324;48.146;11.502;2024-01-30T10:11:46;8.70;99.90
24176;DHT22;12324;48.146;11.502;2024-01-30T10:14:12;8.80;99.90
24176;DHT22;12324;48.146;11.502;2024-01-30T10:33:54;9.00;99.90
24176;DHT22;12324;48.146;11.502;2024-01-30T10:36:40;10.00;92.60
24176;DHT22;12324;48.146;11.502;2024-01-30T10:39:09;10.10;92.30
24176;DHT22;12324;48.146;11.502;2024-01-30T10:41:43;10.20;92.30
24176;DHT22;12324;48.146;11.502;2024-01-30T10:44:11;10.20;90.50
24176;DHT22;12324;48.146;11.502;2024-01-30T10:46:39;10.30;89.30
24176;DHT22;12324;48.146;11.502;2024-01-30T10:49:07;10.40;85.00
24176;DHT22;12324;48.146;11.502;2024-01-30T10:51:37;10.50;85.70
24176;DHT22;12324;48.146;11.502;2024-01-30T10:54:05;10.60;85.10
24176;DHT22;12324;48.146;11.502;2024-01-30T10:56:33;10.80;84.10
24176;DHT22;12324;48.146;11.502;2024-01-30T10:59:01;10.90;81.40
24176;DHT22;12324;48.146;11.502;2024-01-30T11:01:28;11.00;78.40
24176;DHT22;12324;48.146;11.502;2024-01-30T11:03:56;11.20;75.60
24176;DHT22;12324;48.146;11.502;2024-01-30T11:06:25;11.20;74.30
24176;DHT22;12324;48.146;11.502;2024-01-30T11:09:05;11.30;71.90
24176;DHT22;12324;48.146;11.502;2024-01-30T11:11:56;11.40;71.60
24176;DHT22;12324;48.146;11.502;2024-01-30T11:14:30;11.40;72.20
24176;DHT22;12324;48.146;11.502;2024-01-30T11:16:58;11.50;71.40
24176;DHT22;12324;48.146;11.502;2024-01-30T11:19:26;11.70;71.50
24176;DHT22;12324;48.146;11.502;2024-01-30T11:21:54;11.80;72.20
24176;DHT22;12324;48.146;11.502;2024-01-30T11:24:21;11.90;72.00
24176;DHT22;12324;48.146;11.502;2024-01-30T11:26:56;12.00;70.00
24176;DHT22;12324;48.146;11.502;2024-01-30T11:29:28;12.00;69.70
24176;DHT22;12324;48.146;11.502;2024-01-30T11:31:55;12.00;69.40
24176;DHT22;12324;48.146;11.502;2024-01-30T11:34:23;12.00;68.90
24176;DHT22;12324;48.146;11.502;2024-01-30T11:37:03;12.00;67.80
24176;DHT22;12324;48.146;11.502;2024-01-30T11:39:30;12.10;66.70
24176;DHT22;12324;48.146;11.502;2024-01-30T11:41:59;12.20;67.30
24176;DHT22;12324;48.146;11.502;2024-01-30T11:44:26;12.30;66.40
24176;DHT22;12324;48.146;11.502;2024-01-30T11:46:53;12.30;65.50
24176;DHT22;12324;48.146;11.502;2024-01-30T11:49:20;12.30;65.00
24176;DHT22;12324;48.146;11.502;2024-01-30T11:51:48;12.30;65.10
24176;DHT22;12324;48.146;11.502;2024-01-30T11:54:19;12.40;64.90
24176;DHT22;12324;48.146;11.502;2024-01-30T11:56:46;12.40;63.80
24176;DHT22;12324;48.146;11.502;2024-01-30T11:59:13;12.60;64.00
24176;DHT22;12324;48.146;11.502;2024-01-30T12:01:41;12.70;63.80
24176;DHT22;12324;48.146;11.502;2024-01-30T12:04:08;12.90;62.30
24176;DHT22;12324;48.146;11.502;2024-01-30T12:06:37;13.40;59.80
24176;DHT22;12324;48.146;11.502;2024-01-30T12:09:04;13.90;59.40
24176;DHT22;12324;48.146;11.502;2024-01-30T12:11:31;14.30;57.00
24176;DHT22;12324;48.146;11.502;2024-01-30T12:13:58;14.80;55.20
24176;DHT22;12324;48.146;11.502;2024-01-30T12:16:25;14.90;54.30
24176;DHT22;12324;48.146;11.502;2024-01-30T12:19:00;14.80;52.70
24176;DHT22;12324;48.146;11.502;2024-01-30T12:21:29;14.70;52.00
24176;DHT22;12324;48.146;11.502;2024-01-30T12:23:56;15.00;51.40
24176;DHT22;12324;48.146;11.502;2024-01-30T12:26:24;14.90;52.70
24176;DHT22;12324;48.146;11.502;2024-01-30T12:28:55;14.80;52.30
24176;DHT22;12324;48.146;11.502;2024-01-30T12:31:28;14.80;53.00
24176;DHT22;12324;48.146;11.502;2024-01-30T12:33:55;14.80;51.90
24176;DHT22;12324;48.146;11.502;2024-01-30T12:36:25;14.90;52.30
24176;DHT22;12324;48.146;11.502;2024-01-30T12:38:52;15.00;52.60
24176;DHT22;12324;48.146;11.502;2024-01-30T12:41:20;14.90;51.30
24176;DHT22;12324;48.146;11.502;2024-01-30T12:43:47;15.60;48.50
24176;DHT22;12324;48.146;11.502;2024-01-30T12:46:17;15.70;50.60
24176;DHT22;12324;48.146;11.502;2024-01-30T12:48:44;15.50;47.50
24176;DHT22;12324;48.146;11.502;2024-01-30T12:51:11;15.50;47.00
24176;DHT22;12324;48.146;11.502;2024-01-30T12:53:38;15.40;47.40
24176;DHT22;12324;48.146;11.502;2024-01-30T12:56:05;15.80;47.00
24176;DHT22;12324;48.146;11.502;2024-01-30T12:58:32;16.00;45.40
24176;DHT22;12324;48.146;11.502;2024-01-30T13:00:59;15.80;44.50
24176;DHT22;12324;48.146;11.502;2024-01-30T13:03:26;16.40;43.30
24176;DHT22;12324;48.146;11.502;2024-01-30T13:05:53;16.70;39.80
24176;DHT22;12324;48.146;11.502;2024-01-30T13:08:21;17.10;42.30
24176;DHT22;12324;48.146;11.502;2024-01-30T13:13:16;18.10;36.70
24176;DHT22;12324;48.146;11.502;2024-01-30T13:15:47;17.50;36.70
24176;DHT22;12324;48.146;11.502;2024-01-30T13:18:14;18.60;37.00
24176;DHT22;12324;48.146;11.502;2024-01-30T13:20:41;18.90;36.10
24176;DHT22;12324;48.146;11.502;2024-01-30T13:23:09;18.70;36.00
24176;DHT22;12324;48.146;11.502;2024-01-30T13:25:35;18.90;34.40
24176;DHT22;12324;48.146;11.502;2024-01-30T13:28:02;18.90;33.40
24176;DHT22;12324;48.146;11.502;2024-01-30T13:32:58;18.10;34.20
24176;DHT22;12324;48.146;11.502;2024-01-30T13:35:25;17.90;35.70
24176;DHT22;12324;48.146;11.502;2024-01-30T13:37:52;17.40;36.10
24176;DHT22;12324;48.146;11.502;2024-01-30T13:40:19;17.20;36.30
24176;DHT22;12324;48.146;11.502;2024-01-30T13:42:46;17.20;36.90
24176;DHT22;12324;48.146;11.502;2024-01-30T13:45:13;17.30;36.20
24176;DHT22;12324;48.146;11.502;2024-01-30T13:47:40;17.40;36.70
24176;DHT22;12324;48.146;11.502;2024-01-30T13:50:07;17.20;37.00
24176;DHT22;12324;48.146;11.502;2024-01-30T13:52:35;17.10;38.10
24176;DHT22;12324;48.146;11.502;2024-01-30T13:55:10;16.60;38.70
24176;DHT22;12324;48.146;11.502;2024-01-30T13:57:37;15.80;41.00
24176;DHT22;12324;48.146;11.502;2024-01-30T14:00:05;16.10;41.40
24176;DHT22;12324;48.146;11.502;2024-01-30T14:02:35;15.90;41.90
24176;DHT22;12324;48.146;11.502;2024-01-30T14:05:02;15.80;41.90
24176;DHT22;12324;48.146;11.502;2024-01-30T14:07:31;16.00;42.30
24176;DHT22;12324;48.146;11.502;2024-01-30T14:09:59;15.90;41.90
24176;DHT22;12324;48.146;11.502;2024-01-30T14:12:26;15.40;43.80
24176;DHT22;12324;48.146;11.502;2024-01-30T14:14:53;15.30;45.60
24176;DHT22;12324;48.146;11.502;2024-01-30T14:17:19;14.80;44.70
24176;DHT22;12324;48.146;11.502;2024-01-30T14:19:46;14.50;44.90
24176;DHT22;12324;48.146;11.502;2024-01-30T14:22:13;14.40;46.00
24176;DHT22;12324;48.146;11.502;2024-01-30T14:24:40;14.30;47.00
24176;DHT22;12324;48.146;11.502;2024-01-30T14:27:07;14.20;48.20
24176;DHT22;12324;48.146;11.502;2024-01-30T14:29:35;14.40;47.80
24176;DHT22;12324;48.146;11.502;2024-01-30T14:32:02;14.40;47.30
24176;DHT22;12324;48.146;11.502;2024-01-30T14:34:30;14.20;48.70
24176;DHT22;12324;48.146;11.502;2024-01-30T14:36:57;14.10;48.70
24176;DHT22;12324;48.146;11.502;2024-01-30T14:39:24;14.00;50.40
24176;DHT22;12324;48.146;11.502;2024-01-30T14:41:51;13.90;51.20
24176;DHT22;12324;48.146;11.502;2024-01-30T14:44:18;13.70;52.30
24176;DHT22;12324;48.146;11.502;2024-01-30T14:46:45;13.70;52.30
24176;DHT22;12324;48.146;11.502;2024-01-30T14:49:11;13.60;52.90
24176;DHT22;12324;48.146;11.502;2024-01-30T14:51:38;13.60;53.30
24176;DHT22;12324;48.146;11.502;2024-01-30T14:54:05;13.40;54.50
24176;DHT22;12324;48.146;11.502;2024-01-30T14:56:32;13.30;55.30
24176;DHT22;12324;48.146;11.502;2024-01-30T14:59:00;13.20;55.80
24176;DHT22;12324;48.146;11.502;2024-01-30T15:01:26;13.30;56.60
24176;DHT22;12324;48.146;11.502;2024-01-30T15:03:53;13.20;57.10
24176;DHT22;12324;48.146;11.502;2024-01-30T15:06:22;13.10;57.80
24176;DHT22;12324;48.146;11.502;2024-01-30T15:08:51;13.00;59.00
24176;DHT22;12324;48.146;11.502;2024-01-30T15:11:18;13.00;58.90
24176;DHT22;12324;48.146;11.502;2024-01-30T15:13:45;12.90;59.20
24176;DHT22;12324;48.146;11.502;2024-01-30T15:16:12;12.70;59.10
24176;DHT22;12324;48.146;11.502;2024-01-30T15:18:39;12.60;60.30
24176;DHT22;12324;48.146;11.502;2024-01-30T15:21:06;12.40;63.70
24176;DHT22;12324;48.146;11.502;2024-01-30T15:23:33;12.40;64.10
24176;DHT22;12324;48.146;11.502;2024-01-30T15:26:00;12.30;65.40
24176;DHT22;12324;48.146;11.502;2024-01-30T15:28:37;12.20;66.70
24176;DHT22;12324;48.146;11.502;2024-01-30T15:31:05;12.00;66.90
24176;DHT22;12324;48.146;11.502;2024-01-30T15:33:33;12.10;66.90
24176;DHT22;12324;48.146;11.502;2024-01-30T15:36:00;12.00;67.20
24176;DHT22;12324;48.146;11.502;2024-01-30T15:38:28;11.80;68.40
24176;DHT22;12324;48.146;11.502;2024-01-30T15:40:56;11.80;68.70
24176;DHT22;12324;48.146;11.502;2024-01-30T15:43:23;11.70;69.10
24176;DHT22;12324;48.146;11.502;2024-01-30T15:45:50;11.50;70.70
24176;DHT22;12324;48.146;11.502;2024-01-30T15:48:19;11.70;96.20
24176;DHT22;12324;48.146;11.502;2024-01-30T15:50:46;11.50;88.30
24176;DHT22;12324;48.146;11.502;2024-01-30T15:53:13;11.50;92.70
24176;DHT22;12324;48.146;11.502;2024-01-30T15:55:39;11.50;93.50
24176;DHT22;12324;48.146;11.502;2024-01-30T15:58:06;11.30;94.30
24176;DHT22;12324;48.146;11.502;2024-01-30T16:00:34;11.10;92.20
24176;DHT22;12324;48.146;11.502;2024-01-30T16:03:00;10.80;83.70
24176;DHT22;12324;48.146;11.502;2024-01-30T16:05:28;10.60;85.10
24176;DHT22;12324;48.146;11.502;2024-01-30T16:07:55;10.50;91.40
24176;DHT22;12324;48.146;11.502;2024-01-30T16:10:21;10.30;92.60
24176;DHT22;12324;48.146;11.502;2024-01-30T16:12:48;10.10;92.40
24176;DHT22;12324;48.146;11.502;2024-01-30T16:15:16;10.00;91.90
24176;DHT22;12324;48.146;11.502;2024-01-30T16:17:45;9.80;92.10
24176;DHT22;12324;48.146;11.502;2024-01-30T16:20:12;9.70;92.80
24176;DHT22;12324;48.146;11.502;2024-01-30T16:22:42;9.60;97.30
24176;DHT22;12324;48.146;11.502;2024-01-30T16:25:10;9.40;99.00
24176;DHT22;12324;48.146;11.502;2024-01-30T16:27:37;9.40;99.30
24176;DHT22;12324;48.146;11.502;2024-01-30T16:30:04;9.20;99.80
24176;DHT22;12324;48.146;11.502;2024-01-30T16:32:31;9.20;99.90
24176;DHT22;12324;48.146;11.502;2024-01-30T16:34:58;9.10;99.80
24176;DHT22;12324;48.146;11.502;2024-01-30T16:37:26;9.00;99.90
24176;DHT22;12324;48.146;11.502;2024-01-30T16:39:53;9.00;99.90
24176;DHT22;12324;48.146;11.502;2024-01-30T16:42:20;8.90;99.90
24176;DHT22;12324;48.146;11.502;2024-01-30T16:44:47;8.80;99.90
24176;DHT22;12324;48.146;11.502;2024-01-30T16:47:14;8.70;99.90
24176;DHT22;12324;48.146;11.502;2024-01-30T16:49:41;8.60;99.90
24176;DHT22;12324;48.146;11.502;2024-01-30T16:52:08;8.60;99.90
24176;DHT22;12324;48.146;11.502;2024-01-30T16:54:34;8.50;99.90
24176;DHT22;12324;48.146;11.502;2024-01-30T16:57:01;8.40;99.90
24176;DHT22;12324;48.146;11.502;2024-01-30T16:59:28;8.30;99.90
24176;DHT22;12324;48.146;11.502;2024-01-30T17:01:55;8.10;99.90
24176;DHT22;12324;48.146;11.502;2024-01-30T17:04:22;8.10;99.90
24176;DHT22;12324;48.146;11.502;2024-01-30T17:06:49;8.00;99.90
24176;DHT22;12324;48.146;11.502;2024-01-30T17:09:16;7.90;99.90
24176;DHT22;12324;48.146;11.502;2024-01-30T17:11:43;7.70;99.90
24176;DHT22;12324;48.146;11.502;2024-01-30T17:14:10;7.70;99.90
24176;DHT22;12324;48.146;11.502;2024-01-30T17:16:38;7.50;99.90
24176;DHT22;12324;48.146;11.502;2024-01-30T17:19:06;7.50;99.90
24176;DHT22;12324;48.146;11.502;2024-01-30T17:21:33;7.50;99.90
24176;DHT22;12324;48.146;11.502;2024-01-30T17:24:01;7.40;99.90
24176;DHT22;12324;48.146;11.502;2024-01-30T17:26:27;7.30;99.90
24176;DHT22;12324;48.146;11.502;2024-01-30T17:28:54;7.30;99.90
24176;DHT22;12324;48.146;11.502;2024-01-30T17:31:21;7.10;99.90
24176;DHT22;12324;48.146;11.502;2024-01-30T17:33:48;7.10;99.90
24176;DHT22;12324;48.146;11.502;2024-01-30T17:36:15;7.00;99.90
24176;DHT22;12324;48.146;11.502;2024-01-30T17:38:42;6.90;99.90
24176;DHT22;12324;48.146;11.502;2024-01-30T17:41:09;6.80;99.90
24176;DHT22;12324;48.146;11.502;2024-01-30T17:43:39;6.80;99.90
24176;DHT22;12324;48.146;11.502;2024-01-30T17:46:06;6.70;99.90
24176;DHT22;12324;48.146;11.502;2024-01-30T17:48:33;6.70;99.90
24176;DHT22;12324;48.146;11.502;2024-01-30T17:51:02;6.70;99.90
24176;DHT22;12324;48.146;11.502;2024-01-30T17:53:29;6.70;99.90
24176;DHT22;12324;48.146;11.502;2024-01-30T17:55:56;6.80;99.90
24176;DHT22;12324;48.146;11.502;2024-01-30T17:58:27;6.70;99.90
24176;DHT22;12324;48.146;11.502;2024-01-30T18:00:54;6.50;99.90
24176;DHT22;12324;48.146;11.502;2024-01-30T18:03:23;6.60;99.90
24176;DHT22;12324;48.146;11.502;2024-01-30T18:05:51;6.60;99.90
24176;DHT22;12324;48.146;11.502;2024-01-30T18:08:18;6.60;99.90
24176;DHT22;12324;48.146;11.502;2024-01-30T18:10:45;6.50;99.90
24176;DHT22;12324;48.146;11.502;2024-01-30T18:13:11;6.50;99.90
24176;DHT22;12324;48.146;11.502;2024-01-30T18:20:36;6.50;99.90
24176;DHT22;12324;48.146;11.502;2024-01-30T19:27:02;6.40;99.90
24176;DHT22;12324;48.146;11.502;2024-01-30T19:29:29;5.30;99.90
24176;DHT22;12324;48.146;11.502;2024-01-30T19:31:56;5.20;99.90
24176;DHT22;12324;48.146;11.502;2024-01-30T19:34:23;5.10;99.90
24176;DHT22;12324;48.146;11.502;2024-01-30T19:36:50;5.10;99.90
24176;DHT22;12324;48.146;11.502;2024-01-30T19:39:17;5.10;99.90
24176;DHT22;12324;48.146;11.502;2024-01-30T19:41:44;5.00;99.90
24176;DHT22;12324;48.146;11.502;2024-01-30T19:44:11;5.10;99.90
24176;DHT22;12324;48.146;11.502;2024-01-30T19:46:37;5.00;99.90
24176;DHT22;12324;48.146;11.502;2024-01-30T19:49:04;5.00;99.90
24176;DHT22;12324;48.146;11.502;2024-01-30T19:51:31;5.00;99.90
24176;DHT22;12324;48.146;11.502;2024-01-30T19:53:58;4.90;99.90
24176;DHT22;12324;48.146;11.502;2024-01-30T19:56:25;5.10;99.90
24176;DHT22;12324;48.146;11.502;2024-01-30T19:58:51;4.90;99.90
24176;DHT22;12324;48.146;11.502;2024-01-30T20:01:18;4.80;99.90
24176;DHT22;12324;48.146;11.502;2024-01-30T20:03:45;4.80;99.90
24176;DHT22;12324;48.146;11.502;2024-01-30T20:06:12;4.80;99.90